createdAt,value
2023-03-26T00:00:51.875Z,4.8
2023-03-26T00:01:52.487Z,5.2
2023-03-26T00:02:53.154Z,4.9
2023-03-26T00:03:53.691Z,4.4
2023-03-26T00:04:54.304Z,5.1
2023-03-26T00:05:55.145Z,4.4
2023-03-26T00:06:55.822Z,4.7
2023-03-26T00:07:56.412Z,4.6
2023-03-26T00:08:57.005Z,4.8
2023-03-26T00:09:57.604Z,4.9
2023-03-26T00:11:00.021Z,4.3
2023-03-26T00:11:58.817Z,4.1
2023-03-26T00:12:59.414Z,4.1
2023-03-26T00:14:00.006Z,4.0
2023-03-26T00:15:00.592Z,3.8
2023-03-26T00:16:01.216Z,3.8
2023-03-26T00:17:01.820Z,3.9
2023-03-26T00:18:02.455Z,3.8
2023-03-26T00:19:03.088Z,3.5
2023-03-26T00:20:03.622Z,3.4
2023-03-26T00:21:04.212Z,3.4
2023-03-26T00:22:04.944Z,3.6
2023-03-26T00:23:05.543Z,3.6
2023-03-26T00:24:06.161Z,3.6
2023-03-26T00:25:06.733Z,3.6
2023-03-26T00:26:07.312Z,3.3
2023-03-26T00:27:07.927Z,2.9
2023-03-26T00:28:08.542Z,3.1
2023-03-26T00:29:09.135Z,3.3
2023-03-26T00:30:09.731Z,3.4
2023-03-26T00:31:10.357Z,3.1
2023-03-26T00:32:10.933Z,3.4
2023-03-26T00:33:11.567Z,2.9
2023-03-26T00:34:12.123Z,3.0
2023-03-26T00:35:12.720Z,3.6
2023-03-26T00:36:13.371Z,2.8
2023-03-26T00:37:13.914Z,2.9
2023-03-26T00:38:14.513Z,2.7
2023-03-26T00:39:15.126Z,3.2
2023-03-26T00:40:15.755Z,3.4
2023-03-26T00:41:16.351Z,2.7
2023-03-26T00:42:16.942Z,3.0
2023-03-26T00:43:17.540Z,2.4
2023-03-26T00:44:18.133Z,3.0
2023-03-26T00:45:18.744Z,3.2
2023-03-26T00:46:19.446Z,3.6
2023-03-26T00:47:20.047Z,2.8
2023-03-26T00:48:21.709Z,3.2
2023-03-26T00:49:22.236Z,2.8
2023-03-26T00:50:22.819Z,2.8
2023-03-26T00:51:23.412Z,2.3
2023-03-26T00:52:24.026Z,2.7
2023-03-26T00:53:24.649Z,2.6
2023-03-26T00:54:25.230Z,3.6
2023-03-26T00:55:25.824Z,3.7
2023-03-26T00:56:26.416Z,2.8
2023-03-26T00:57:35.489Z,2.4
2023-03-26T00:58:27.650Z,2.6
2023-03-26T00:59:28.230Z,2.5
2023-03-26T01:00:28.823Z,2.7
2023-03-26T01:01:29.541Z,2.8
2023-03-26T01:02:30.167Z,2.3
2023-03-26T01:03:30.840Z,2.4
2023-03-26T01:04:31.894Z,2.9
2023-03-26T01:05:32.728Z,3.1
2023-03-26T01:06:33.315Z,2.9
2023-03-26T01:07:33.908Z,3.7
2023-03-26T01:08:34.502Z,3.6
2023-03-26T01:09:35.092Z,2.7
2023-03-26T01:10:35.707Z,3.0
2023-03-26T01:11:36.301Z,3.0
2023-03-26T01:12:36.898Z,3.0
2023-03-26T01:13:37.510Z,3.1
2023-03-26T01:14:38.097Z,3.3
2023-03-26T01:15:38.728Z,3.9
2023-03-26T01:16:39.312Z,3.3
2023-03-26T01:17:39.934Z,3.8
2023-03-26T01:18:40.499Z,3.6
2023-03-26T01:19:41.096Z,3.6
2023-03-26T01:20:41.685Z,3.7
2023-03-26T01:21:42.302Z,3.5
2023-03-26T01:22:42.892Z,3.2
2023-03-26T01:23:43.484Z,4.0
2023-03-26T01:24:44.078Z,3.5
2023-03-26T01:25:44.673Z,3.5
2023-03-26T01:26:45.260Z,3.8
2023-03-26T01:27:45.855Z,3.9
2023-03-26T01:28:46.455Z,3.6
2023-03-26T01:29:47.042Z,3.4
2023-03-26T01:30:47.634Z,3.5
2023-03-26T01:31:48.226Z,3.9
2023-03-26T01:32:48.893Z,3.5
2023-03-26T01:33:49.474Z,3.5
2023-03-26T01:34:50.063Z,3.1
2023-03-26T01:35:50.749Z,3.4
2023-03-26T01:36:51.314Z,3.5
2023-03-26T01:37:51.910Z,3.2
2023-03-26T01:38:52.503Z,3.6
2023-03-26T01:39:53.103Z,3.6
2023-03-26T01:40:53.690Z,3.9
2023-03-26T01:41:54.310Z,3.3
2023-03-26T01:42:54.874Z,3.7
2023-03-26T01:43:55.464Z,3.2
2023-03-26T01:44:56.057Z,4.1
2023-03-26T01:45:56.905Z,3.2
2023-03-26T01:46:57.590Z,3.8
2023-03-26T01:47:58.195Z,3.5
2023-03-26T01:48:58.757Z,3.9
2023-03-26T01:49:59.354Z,3.3
2023-03-26T01:50:59.939Z,3.4
2023-03-26T01:52:00.541Z,4.0
2023-03-26T01:53:01.143Z,3.4
2023-03-26T01:54:01.721Z,3.6
2023-03-26T01:55:02.311Z,3.6
2023-03-26T01:56:02.903Z,3.2
2023-03-26T01:57:03.549Z,2.9
2023-03-26T01:58:04.120Z,3.0
2023-03-26T01:59:04.728Z,3.6
2023-03-26T02:00:05.309Z,3.5
2023-03-26T02:01:05.921Z,4.2
2023-03-26T02:02:06.574Z,4.1
2023-03-26T02:03:07.327Z,4.0
2023-03-26T02:04:07.902Z,4.3
2023-03-26T02:05:08.496Z,5.0
2023-03-26T02:06:09.100Z,4.5
2023-03-26T02:07:09.688Z,4.3
2023-03-26T02:08:10.286Z,4.5
2023-03-26T02:09:10.898Z,4.6
2023-03-26T02:10:11.489Z,5.3
2023-03-26T02:11:12.083Z,4.7
2023-03-26T02:12:12.679Z,4.4
2023-03-26T02:13:13.299Z,5.3
2023-03-26T02:14:13.890Z,5.0
2023-03-26T02:15:14.486Z,5.3
2023-03-26T02:16:15.119Z,5.3
2023-03-26T02:17:15.669Z,5.3
2023-03-26T02:18:16.262Z,4.9
2023-03-26T02:19:16.879Z,5.4
2023-03-26T02:20:17.489Z,5.2
2023-03-26T02:21:18.083Z,5.5
2023-03-26T02:22:18.678Z,5.7
2023-03-26T02:23:19.264Z,5.5
2023-03-26T02:24:19.885Z,5.8
2023-03-26T02:25:20.494Z,5.6
2023-03-26T02:26:21.049Z,6.0
2023-03-26T02:27:21.642Z,6.1
2023-03-26T02:28:22.241Z,6.2
2023-03-26T02:29:22.828Z,6.8
2023-03-26T02:30:23.426Z,6.4
2023-03-26T02:31:24.027Z,6.7
2023-03-26T02:32:24.917Z,6.2
2023-03-26T02:33:26.197Z,6.0
2023-03-26T02:34:26.797Z,6.2
2023-03-26T02:35:27.452Z,5.9
2023-03-26T02:36:28.412Z,6.0
2023-03-26T02:37:29.130Z,6.1
2023-03-26T02:38:29.726Z,5.9
2023-03-26T02:39:30.319Z,6.3
2023-03-26T02:40:30.947Z,6.0
2023-03-26T02:41:31.506Z,5.9
2023-03-26T02:42:32.118Z,6.3
2023-03-26T02:43:32.710Z,5.7
2023-03-26T02:44:33.337Z,5.9
2023-03-26T02:45:33.935Z,5.5
2023-03-26T02:46:34.520Z,5.8
2023-03-26T02:47:35.179Z,5.5
2023-03-26T02:48:35.959Z,6.6
2023-03-26T02:49:36.555Z,5.9
2023-03-26T02:50:37.140Z,5.9
2023-03-26T02:51:37.744Z,5.1
2023-03-26T02:52:38.349Z,5.6
2023-03-26T02:53:38.945Z,6.2
2023-03-26T02:54:39.537Z,6.1
2023-03-26T02:55:40.129Z,5.8
2023-03-26T02:56:40.744Z,6.4
2023-03-26T02:57:41.325Z,6.7
2023-03-26T02:58:41.912Z,5.9
2023-03-26T02:59:42.508Z,6.1
2023-03-26T03:00:43.099Z,5.6
2023-03-26T03:01:43.694Z,6.7
2023-03-26T03:02:44.572Z,5.9
2023-03-26T03:03:45.194Z,6.3
2023-03-26T03:04:45.807Z,6.7
2023-03-26T03:05:46.400Z,7.0
2023-03-26T03:06:46.996Z,6.8
2023-03-26T03:07:47.588Z,6.7
2023-03-26T03:08:48.190Z,6.7
2023-03-26T03:09:48.797Z,7.3
2023-03-26T03:10:49.392Z,6.8
2023-03-26T03:11:49.984Z,6.6
2023-03-26T03:12:50.578Z,7.1
2023-03-26T03:13:51.170Z,6.5
2023-03-26T03:14:51.770Z,6.6
2023-03-26T03:15:52.527Z,6.7
2023-03-26T03:16:53.181Z,6.5
2023-03-26T03:17:53.781Z,5.7
2023-03-26T03:18:54.711Z,7.7
2023-03-26T03:19:55.561Z,7.2
2023-03-26T03:20:56.158Z,6.7
2023-03-26T03:21:56.751Z,6.8
2023-03-26T03:22:57.362Z,6.3
2023-03-26T03:23:59.925Z,7.1
2023-03-26T03:24:58.565Z,6.8
2023-03-26T03:25:59.156Z,7.2
2023-03-26T03:26:59.751Z,6.8
2023-03-26T03:28:00.362Z,6.9
2023-03-26T03:29:00.957Z,7.2
2023-03-26T03:30:01.554Z,7.3
2023-03-26T03:31:02.228Z,7.8
2023-03-26T03:32:02.785Z,7.3
2023-03-26T03:33:03.422Z,7.2
2023-03-26T03:34:04.062Z,7.1
2023-03-26T03:35:04.623Z,7.0
2023-03-26T03:36:05.222Z,8.0
2023-03-26T03:37:05.799Z,9.0
2023-03-26T03:38:06.391Z,8.2
2023-03-26T03:39:06.989Z,7.4
2023-03-26T03:40:07.580Z,8.0
2023-03-26T03:41:08.211Z,7.2
2023-03-26T03:42:08.786Z,8.5
2023-03-26T03:43:09.400Z,8.6
2023-03-26T03:44:09.996Z,7.7
2023-03-26T03:45:10.592Z,7.9
2023-03-26T03:46:11.221Z,8.6
2023-03-26T03:47:11.800Z,7.9
2023-03-26T03:48:12.398Z,8.1
2023-03-26T03:49:12.988Z,8.9
2023-03-26T03:50:13.604Z,8.6
2023-03-26T03:51:14.206Z,8.5
2023-03-26T03:52:14.789Z,8.2
2023-03-26T03:53:15.383Z,8.7
2023-03-26T03:54:15.974Z,8.4
2023-03-26T03:55:16.572Z,9.1
2023-03-26T03:56:17.163Z,8.4
2023-03-26T03:57:17.757Z,8.5
2023-03-26T03:58:18.351Z,8.5
2023-03-26T03:59:18.946Z,8.1
2023-03-26T04:00:19.538Z,8.1
2023-03-26T04:01:20.132Z,8.1
2023-03-26T04:02:20.763Z,8.0
2023-03-26T04:03:33.471Z,8.2
2023-03-26T04:04:21.983Z,8.7
2023-03-26T04:05:22.572Z,8.5
2023-03-26T04:06:23.135Z,7.6
2023-03-26T04:07:23.729Z,8.3
2023-03-26T04:08:24.322Z,8.7
2023-03-26T04:09:24.920Z,7.1
2023-03-26T04:10:25.531Z,7.3
2023-03-26T04:11:26.129Z,7.7
2023-03-26T04:12:26.719Z,7.5
2023-03-26T04:13:27.316Z,7.8
2023-03-26T04:14:27.910Z,7.9
2023-03-26T04:15:28.501Z,7.9
2023-03-26T04:16:29.158Z,7.7
2023-03-26T04:17:29.764Z,9.1
2023-03-26T04:18:30.395Z,7.8
2023-03-26T04:19:30.933Z,7.5
2023-03-26T04:20:31.526Z,8.3
2023-03-26T04:21:32.123Z,8.9
2023-03-26T04:22:32.715Z,7.4
2023-03-26T04:23:33.309Z,7.9
2023-03-26T04:24:33.903Z,7.9
2023-03-26T04:25:34.616Z,7.7
2023-03-26T04:26:35.213Z,7.8
2023-03-26T04:27:35.820Z,9.1
2023-03-26T04:28:36.419Z,9.0
2023-03-26T04:29:37.011Z,10.0
2023-03-26T04:30:37.628Z,8.9
2023-03-26T04:31:38.336Z,9.5
2023-03-26T04:32:38.977Z,9.8
2023-03-26T04:33:39.535Z,8.0
2023-03-26T04:34:40.145Z,9.4
2023-03-26T04:35:40.769Z,8.7
2023-03-26T04:36:41.335Z,9.7
2023-03-26T04:37:41.934Z,9.7
2023-03-26T04:38:42.545Z,10.3
2023-03-26T04:39:43.142Z,10.7
2023-03-26T04:40:43.738Z,10.0
2023-03-26T04:41:44.335Z,10.2
2023-03-26T04:42:44.930Z,10.0
2023-03-26T04:43:45.523Z,10.7
2023-03-26T04:44:46.118Z,10.4
2023-03-26T04:45:46.713Z,9.7
2023-03-26T04:46:47.364Z,10.4
2023-03-26T04:47:47.956Z,11.6
2023-03-26T04:48:48.525Z,10.7
2023-03-26T04:49:49.129Z,10.9
2023-03-26T04:50:49.738Z,11.2
2023-03-26T04:51:50.332Z,11.3
2023-03-26T04:52:50.950Z,10.8
2023-03-26T04:53:51.549Z,11.1
2023-03-26T04:54:52.145Z,11.0
2023-03-26T04:55:52.896Z,11.1
2023-03-26T04:56:53.760Z,11.5
2023-03-26T04:57:54.333Z,12.3
2023-03-26T04:58:54.928Z,11.0
2023-03-26T04:59:55.529Z,11.3
2023-03-26T05:00:56.144Z,12.0
2023-03-26T05:01:56.720Z,11.7
2023-03-26T05:02:57.381Z,11.7
2023-03-26T05:03:57.982Z,10.8
2023-03-26T05:04:58.546Z,11.5
2023-03-26T05:05:59.142Z,12.4
2023-03-26T05:06:59.753Z,11.6
2023-03-26T05:08:00.352Z,12.5
2023-03-26T05:09:00.951Z,12.1
2023-03-26T05:10:01.582Z,12.1
2023-03-26T05:11:02.163Z,12.9
2023-03-26T05:12:02.760Z,12.2
2023-03-26T05:13:03.366Z,12.1
2023-03-26T05:14:03.985Z,12.4
2023-03-26T05:15:04.574Z,12.4
2023-03-26T05:16:05.197Z,13.1
2023-03-26T05:17:05.766Z,12.8
2023-03-26T05:18:06.416Z,12.4
2023-03-26T05:19:06.977Z,13.4
2023-03-26T05:20:07.567Z,12.9
2023-03-26T05:21:08.162Z,12.7
2023-03-26T05:22:08.757Z,13.3
2023-03-26T05:23:09.357Z,12.5
2023-03-26T05:24:09.958Z,12.4
2023-03-26T05:25:10.575Z,13.0
2023-03-26T05:26:11.172Z,14.2
2023-03-26T05:27:11.792Z,12.6
2023-03-26T05:28:12.397Z,12.5
2023-03-26T05:29:12.989Z,13.5
2023-03-26T05:30:13.601Z,12.8
2023-03-26T05:31:14.186Z,13.0
2023-03-26T05:32:14.786Z,13.2
2023-03-26T05:33:15.445Z,12.5
2023-03-26T05:34:16.047Z,13.0
2023-03-26T05:35:16.670Z,12.6
2023-03-26T05:36:17.301Z,13.3
2023-03-26T05:37:17.881Z,12.7
2023-03-26T05:38:18.481Z,13.5
2023-03-26T05:39:19.098Z,13.6
2023-03-26T05:40:19.695Z,13.8
2023-03-26T05:41:20.294Z,13.3
2023-03-26T05:42:20.893Z,13.6
2023-03-26T05:43:21.494Z,13.6
2023-03-26T05:44:22.094Z,13.5
2023-03-26T05:45:22.696Z,13.3
2023-03-26T05:46:23.397Z,12.4
2023-03-26T05:47:23.997Z,13.1
2023-03-26T05:48:24.569Z,12.9
2023-03-26T05:49:25.177Z,13.5
2023-03-26T05:50:25.763Z,12.8
2023-03-26T05:51:26.367Z,12.2
2023-03-26T05:52:26.965Z,13.3
2023-03-26T05:53:27.582Z,13.2
2023-03-26T05:54:28.206Z,13.7
2023-03-26T05:55:28.801Z,12.6
2023-03-26T05:56:29.400Z,12.8
2023-03-26T05:57:30.000Z,12.5
2023-03-26T05:58:30.602Z,12.5
2023-03-26T05:59:31.237Z,10.3
2023-03-26T06:00:31.838Z,10.2
2023-03-26T06:01:32.437Z,10.3
2023-03-26T06:02:33.063Z,9.7
2023-03-26T06:03:33.798Z,10.0
2023-03-26T06:04:34.497Z,9.8
2023-03-26T06:05:35.135Z,8.9
2023-03-26T06:06:35.728Z,9.5
2023-03-26T06:07:36.325Z,8.6
2023-03-26T06:08:36.923Z,9.0
2023-03-26T06:09:37.522Z,9.1
2023-03-26T06:10:38.124Z,8.7
2023-03-26T06:11:38.722Z,10.0
2023-03-26T06:12:39.323Z,9.0
2023-03-26T06:13:39.938Z,7.6
2023-03-26T06:14:40.538Z,8.2
2023-03-26T06:15:41.182Z,9.5
2023-03-26T06:16:41.744Z,8.5
2023-03-26T06:17:42.368Z,7.5
2023-03-26T06:18:42.982Z,7.6
2023-03-26T06:19:43.546Z,7.8
2023-03-26T06:20:44.146Z,9.8
2023-03-26T06:21:44.746Z,9.6
2023-03-26T06:22:45.337Z,8.7
2023-03-26T06:23:45.937Z,8.8
2023-03-26T06:24:46.535Z,9.7
2023-03-26T06:25:47.153Z,9.2
2023-03-26T06:26:47.756Z,9.0
2023-03-26T06:27:48.367Z,8.7
2023-03-26T06:28:48.987Z,8.6
2023-03-26T06:29:49.583Z,9.0
2023-03-26T06:30:50.188Z,9.5
2023-03-26T06:31:50.780Z,9.3
2023-03-26T06:32:51.567Z,8.4
2023-03-26T06:33:52.151Z,7.9
2023-03-26T06:34:52.750Z,8.9
2023-03-26T06:35:53.421Z,9.3
2023-03-26T06:36:53.983Z,8.6
2023-03-26T06:37:54.598Z,9.9
2023-03-26T06:38:55.199Z,7.9
2023-03-26T06:39:55.798Z,9.0
2023-03-26T06:40:56.538Z,9.9
2023-03-26T06:41:57.312Z,9.6
2023-03-26T06:43:09.198Z,8.8
2023-03-26T06:43:58.543Z,9.8
2023-03-26T06:44:59.188Z,9.6
2023-03-26T06:45:59.788Z,9.4
2023-03-26T06:47:00.404Z,9.6
2023-03-26T06:48:01.064Z,9.1
2023-03-26T06:49:01.612Z,9.1
2023-03-26T06:50:02.224Z,10.1
2023-03-26T06:51:02.828Z,10.7
2023-03-26T06:52:03.450Z,10.5
2023-03-26T06:53:04.047Z,10.8
2023-03-26T06:54:04.662Z,9.7
2023-03-26T06:55:05.247Z,10.3
2023-03-26T06:56:08.468Z,9.7
2023-03-26T06:57:07.492Z,10.7
2023-03-26T06:58:08.078Z,10.9
2023-03-26T06:59:08.698Z,10.7
2023-03-26T07:00:09.303Z,11.3
2023-03-26T07:01:09.931Z,9.0
2023-03-26T07:02:10.515Z,9.2
2023-03-26T07:03:11.118Z,8.9
2023-03-26T07:04:11.769Z,8.7
2023-03-26T07:05:12.353Z,9.8
2023-03-26T07:06:12.954Z,10.0
2023-03-26T07:07:13.550Z,10.4
2023-03-26T07:08:14.153Z,11.0
2023-03-26T07:09:14.753Z,11.0
2023-03-26T07:10:15.355Z,10.7
2023-03-26T07:11:15.952Z,11.9
2023-03-26T07:12:16.557Z,12.1
2023-03-26T07:13:17.172Z,11.8
2023-03-26T07:14:17.767Z,11.6
2023-03-26T07:15:18.375Z,10.8
2023-03-26T07:16:18.994Z,10.9
2023-03-26T07:17:19.579Z,9.9
2023-03-26T07:18:20.200Z,11.1
2023-03-26T07:19:20.831Z,12.0
2023-03-26T07:20:21.447Z,10.8
2023-03-26T07:21:22.106Z,10.6
2023-03-26T07:22:22.706Z,11.6
2023-03-26T07:23:23.330Z,10.9
2023-03-26T07:24:23.933Z,11.6
2023-03-26T07:25:24.532Z,22.0
2023-03-26T07:26:25.153Z,17.3
2023-03-26T07:27:25.987Z,26.2
2023-03-26T07:28:26.725Z,19.2
2023-03-26T07:29:27.308Z,14.2
2023-03-26T07:30:27.914Z,10.8
2023-03-26T07:31:28.546Z,11.7
2023-03-26T07:32:29.144Z,11.5
2023-03-26T07:33:29.749Z,12.5
2023-03-26T07:34:30.352Z,12.7
2023-03-26T07:35:31.012Z,11.7
2023-03-26T07:36:31.577Z,11.1
2023-03-26T07:37:32.197Z,11.6
2023-03-26T07:38:32.792Z,11.2
2023-03-26T07:39:33.390Z,10.6
2023-03-26T07:40:33.994Z,12.3
2023-03-26T07:41:34.590Z,13.3
2023-03-26T07:42:35.196Z,19.2
2023-03-26T07:43:35.807Z,14.6
2023-03-26T07:44:36.407Z,14.8
2023-03-26T07:45:37.054Z,12.9
2023-03-26T07:46:37.629Z,11.9
2023-03-26T07:47:38.239Z,12.1
2023-03-26T07:48:38.830Z,11.6
2023-03-26T07:49:39.429Z,12.6
2023-03-26T07:50:40.030Z,13.9
2023-03-26T07:51:40.642Z,11.4
2023-03-26T07:52:41.227Z,14.3
2023-03-26T07:53:41.829Z,13.1
2023-03-26T07:54:42.433Z,12.3
2023-03-26T07:55:43.031Z,13.3
2023-03-26T07:56:43.730Z,13.3
2023-03-26T07:57:44.455Z,11.9
2023-03-26T07:58:45.035Z,11.1
2023-03-26T07:59:45.652Z,11.1
2023-03-26T08:00:46.262Z,10.7
2023-03-26T08:01:46.857Z,9.7
2023-03-26T08:02:47.499Z,10.9
2023-03-26T08:03:48.112Z,10.7
2023-03-26T08:04:48.749Z,10.3
2023-03-26T08:05:49.345Z,11.3
2023-03-26T08:06:49.971Z,10.4
2023-03-26T08:07:50.563Z,10.1
2023-03-26T08:08:51.159Z,9.3
2023-03-26T08:09:51.789Z,10.1
2023-03-26T08:10:52.623Z,9.2
2023-03-26T08:11:53.184Z,9.2
2023-03-26T08:12:53.584Z,9.0
2023-03-26T08:13:54.182Z,9.1
2023-03-26T08:14:54.785Z,8.3
2023-03-26T08:15:55.467Z,8.1
2023-03-26T08:16:56.018Z,7.4
2023-03-26T08:17:56.653Z,7.4
2023-03-26T08:18:57.232Z,6.5
2023-03-26T08:19:57.833Z,7.0
2023-03-26T08:20:58.469Z,6.7
2023-03-26T08:21:59.023Z,7.4
2023-03-26T08:22:59.623Z,6.1
2023-03-26T08:24:00.231Z,6.8
2023-03-26T08:25:00.841Z,6.3
2023-03-26T08:26:01.462Z,6.2
2023-03-26T08:27:02.060Z,7.0
2023-03-26T08:28:02.660Z,6.1
2023-03-26T08:29:03.264Z,6.5
2023-03-26T08:30:03.872Z,6.0
2023-03-26T08:31:04.478Z,5.6
2023-03-26T08:32:05.060Z,5.3
2023-03-26T08:33:05.722Z,5.5
2023-03-26T08:34:06.272Z,6.2
2023-03-26T08:35:06.913Z,6.2
2023-03-26T08:36:07.494Z,5.8
2023-03-26T08:37:08.082Z,5.3
2023-03-26T08:38:08.677Z,5.9
2023-03-26T08:39:09.280Z,6.2
2023-03-26T08:40:09.897Z,5.3
2023-03-26T08:41:10.515Z,5.0
2023-03-26T08:42:11.100Z,5.2
2023-03-26T08:43:11.714Z,4.6
2023-03-26T08:44:12.312Z,4.5
2023-03-26T08:45:12.914Z,4.3
2023-03-26T08:46:13.524Z,4.5
2023-03-26T08:47:14.112Z,4.3
2023-03-26T08:48:14.708Z,3.9
2023-03-26T08:49:15.308Z,4.2
2023-03-26T08:50:15.909Z,3.7
2023-03-26T08:51:16.526Z,3.3
2023-03-26T08:52:17.124Z,3.8
2023-03-26T08:53:17.725Z,3.4
2023-03-26T08:54:18.323Z,3.6
2023-03-26T08:55:18.922Z,3.7
2023-03-26T08:56:19.522Z,3.3
2023-03-26T08:57:20.122Z,3.9
2023-03-26T08:58:20.723Z,3.6
2023-03-26T08:59:21.346Z,3.4
2023-03-26T09:00:21.947Z,3.4
2023-03-26T09:01:22.658Z,3.7
2023-03-26T09:02:23.235Z,3.4
2023-03-26T09:03:24.010Z,3.4
2023-03-26T09:04:24.631Z,3.9
2023-03-26T09:05:25.242Z,3.9
2023-03-26T09:06:25.852Z,3.3
2023-03-26T09:07:26.432Z,3.2
2023-03-26T09:08:29.996Z,3.3
2023-03-26T09:09:28.624Z,2.7
2023-03-26T09:10:29.223Z,2.8
2023-03-26T09:11:29.823Z,2.5
2023-03-26T09:12:30.425Z,3.1
2023-03-26T09:13:31.022Z,2.7
2023-03-26T09:14:31.651Z,2.7
2023-03-26T09:15:32.249Z,2.8
2023-03-26T09:16:32.891Z,3.0
2023-03-26T09:17:33.491Z,3.6
2023-03-26T09:18:34.097Z,3.1
2023-03-26T09:19:34.684Z,3.5
2023-03-26T09:20:35.286Z,4.1
2023-03-26T09:21:35.886Z,3.7
2023-03-26T09:22:36.486Z,3.3
2023-03-26T09:23:37.084Z,3.3
2023-03-26T09:24:37.694Z,3.3
2023-03-26T09:25:38.291Z,3.8
2023-03-26T09:26:38.890Z,3.8
2023-03-26T09:27:39.490Z,3.8
2023-03-26T09:28:40.110Z,3.5
2023-03-26T09:29:40.706Z,3.1
2023-03-26T09:30:41.308Z,4.3
2023-03-26T09:31:41.994Z,3.8
2023-03-26T09:32:42.623Z,3.6
2023-03-26T09:33:43.235Z,4.4
2023-03-26T09:34:43.839Z,3.6
2023-03-26T09:35:44.426Z,3.9
2023-03-26T09:36:45.031Z,3.9
2023-03-26T09:37:57.499Z,3.3
2023-03-26T09:38:46.253Z,3.8
2023-03-26T09:39:46.846Z,3.7
2023-03-26T09:40:47.448Z,3.8
2023-03-26T09:41:48.047Z,3.5
2023-03-26T09:42:48.647Z,3.6
2023-03-26T09:43:49.247Z,4.3
2023-03-26T09:44:49.847Z,2.9
2023-03-26T09:45:50.517Z,4.1
2023-03-26T09:46:51.071Z,4.1
2023-03-26T09:48:52.296Z,3.6
2023-03-26T09:49:52.896Z,3.9
2023-03-26T09:50:53.824Z,3.5
2023-03-26T09:51:54.557Z,3.2
2023-03-26T09:52:55.161Z,3.3
2023-03-26T09:53:55.756Z,3.6
2023-03-26T09:54:56.358Z,2.8
2023-03-26T09:55:57.168Z,3.7
2023-03-26T09:56:57.882Z,2.9
2023-03-26T09:57:58.550Z,3.7
2023-03-26T09:58:59.143Z,3.6
2023-03-26T09:59:59.744Z,3.5
2023-03-26T10:01:00.511Z,3.5
2023-03-26T10:02:01.013Z,3.0
2023-03-26T10:03:01.632Z,4.2
2023-03-26T10:04:02.226Z,3.5
2023-03-26T10:05:02.860Z,3.5
2023-03-26T10:06:03.432Z,3.4
2023-03-26T10:07:04.057Z,3.3
2023-03-26T10:08:04.656Z,3.5
2023-03-26T10:09:05.253Z,3.9
2023-03-26T10:10:05.885Z,3.3
2023-03-26T10:11:06.476Z,3.1
2023-03-26T10:12:07.082Z,23.7
2023-03-26T10:13:14.468Z,3.9
2023-03-26T10:14:09.294Z,4.0
2023-03-26T10:15:09.903Z,3.9
2023-03-26T10:17:11.120Z,3.6
2023-03-26T10:18:27.896Z,3.5
2023-03-26T10:19:13.329Z,3.7
2023-03-26T10:20:13.930Z,4.6
2023-03-26T10:21:14.542Z,4.1
2023-03-26T10:22:15.150Z,3.9
2023-03-26T10:23:15.750Z,4.7
2023-03-26T10:24:16.349Z,3.4
2023-03-26T10:25:16.957Z,4.3
2023-03-26T10:26:17.550Z,3.8
2023-03-26T10:27:18.152Z,4.0
2023-03-26T10:28:18.754Z,4.0
2023-03-26T10:29:19.354Z,3.1
2023-03-26T10:30:19.949Z,3.5
2023-03-26T10:31:20.585Z,3.5
2023-03-26T10:32:21.183Z,3.9
2023-03-26T10:33:22.954Z,4.0
2023-03-26T10:34:29.352Z,3.5
2023-03-26T10:35:25.023Z,3.3
2023-03-26T10:36:25.623Z,3.8
2023-03-26T10:37:26.236Z,3.0
2023-03-26T10:38:26.838Z,3.7
2023-03-26T10:39:36.534Z,3.2
2023-03-26T10:40:29.045Z,3.5
2023-03-26T10:41:29.648Z,3.8
2023-03-26T10:42:30.251Z,3.0
2023-03-26T10:43:30.850Z,3.4
2023-03-26T10:44:31.446Z,2.8
2023-03-26T10:45:32.055Z,2.7
2023-03-26T10:46:32.662Z,3.1
2023-03-26T10:47:33.250Z,3.2
2023-03-26T10:48:33.851Z,3.4
2023-03-26T10:49:34.488Z,3.7
2023-03-26T10:50:35.066Z,3.1
2023-03-26T10:51:35.672Z,3.4
2023-03-26T10:52:36.269Z,3.0
2023-03-26T10:53:36.869Z,3.5
2023-03-26T10:54:37.476Z,3.3
2023-03-26T10:55:38.070Z,3.3
2023-03-26T10:56:38.755Z,2.7
2023-03-26T10:57:39.296Z,3.6
2023-03-26T10:58:48.431Z,3.6
2023-03-26T10:59:41.498Z,3.6
2023-03-26T11:00:42.099Z,3.1
2023-03-26T11:01:42.787Z,3.3
2023-03-26T11:02:43.355Z,3.3
2023-03-26T11:03:43.971Z,3.2
2023-03-26T11:04:44.540Z,3.4
2023-03-26T11:05:45.207Z,3.3
2023-03-26T11:06:45.777Z,4.2
2023-03-26T11:07:46.376Z,3.2
2023-03-26T11:08:46.975Z,3.7
2023-03-26T11:09:47.584Z,3.7
2023-03-26T11:10:48.183Z,3.5
2023-03-26T11:11:48.777Z,3.7
2023-03-26T11:12:49.386Z,3.6
2023-03-26T11:13:49.998Z,3.4
2023-03-26T11:14:50.604Z,4.3
2023-03-26T11:15:51.217Z,3.0
2023-03-26T11:16:51.812Z,3.4
2023-03-26T11:17:52.431Z,3.8
2023-03-26T11:18:53.010Z,3.6
2023-03-26T11:19:53.634Z,3.2
2023-03-26T11:20:54.382Z,4.2
2023-03-26T11:21:54.848Z,3.8
2023-03-26T11:22:55.451Z,3.0
2023-03-26T11:24:04.912Z,3.1
2023-03-26T11:24:57.640Z,3.6
2023-03-26T11:25:58.241Z,3.7
2023-03-26T11:27:15.439Z,3.8
2023-03-26T11:27:59.475Z,3.8
2023-03-26T11:29:03.995Z,3.7
2023-03-26T11:30:01.698Z,3.9
2023-03-26T11:31:02.331Z,4.0
2023-03-26T11:32:02.910Z,3.8
2023-03-26T11:33:03.536Z,3.6
2023-03-26T11:34:04.105Z,3.9
2023-03-26T11:35:04.724Z,4.0
2023-03-26T11:36:05.371Z,3.4
2023-03-26T11:37:05.959Z,3.3
2023-03-26T11:38:06.577Z,3.3
2023-03-26T11:39:07.177Z,3.6
2023-03-26T11:40:07.911Z,4.1
2023-03-26T11:41:08.524Z,3.4
2023-03-26T11:42:09.129Z,4.6
2023-03-26T11:43:09.754Z,5.6
2023-03-26T11:44:10.348Z,3.8
2023-03-26T11:45:10.944Z,3.6
2023-03-26T11:46:11.581Z,3.3
2023-03-26T11:47:12.206Z,3.8
2023-03-26T11:48:12.839Z,4.4
2023-03-26T11:49:13.439Z,4.3
2023-03-26T11:50:14.040Z,3.3
2023-03-26T11:51:14.635Z,4.1
2023-03-26T11:52:15.239Z,3.9
2023-03-26T11:53:15.834Z,4.5
2023-03-26T11:54:16.444Z,3.3
2023-03-26T11:55:17.025Z,3.1
2023-03-26T11:56:17.625Z,4.1
2023-03-26T11:57:18.246Z,4.4
2023-03-26T11:58:18.819Z,3.4
2023-03-26T11:59:21.249Z,3.6
2023-03-26T12:00:21.008Z,3.6
2023-03-26T12:01:21.622Z,3.7
2023-03-26T12:02:22.289Z,3.3
2023-03-26T12:03:22.969Z,3.9
2023-03-26T12:04:23.572Z,3.8
2023-03-26T12:05:24.157Z,4.1
2023-03-26T12:06:24.740Z,3.4
2023-03-26T12:07:25.340Z,4.0
2023-03-26T12:08:25.938Z,3.4
2023-03-26T12:09:26.537Z,3.2
2023-03-26T12:10:27.162Z,3.4
2023-03-26T12:11:27.749Z,3.6
2023-03-26T12:12:28.350Z,3.1
2023-03-26T12:13:28.950Z,2.9
2023-03-26T12:14:29.563Z,2.9
2023-03-26T12:15:30.167Z,2.7
2023-03-26T12:16:30.870Z,2.7
2023-03-26T12:17:31.964Z,3.5
2023-03-26T12:18:32.660Z,2.9
2023-03-26T12:19:33.260Z,3.3
2023-03-26T12:20:33.864Z,3.6
2023-03-26T12:21:34.484Z,2.8
2023-03-26T12:22:35.083Z,2.9
2023-03-26T12:23:35.681Z,2.7
2023-03-26T12:24:36.286Z,3.2
2023-03-26T12:25:36.883Z,2.7
2023-03-26T12:26:37.502Z,2.9
2023-03-26T12:27:38.088Z,2.9
2023-03-26T12:28:38.690Z,2.5
2023-03-26T12:29:39.289Z,3.5
2023-03-26T12:30:39.890Z,3.7
2023-03-26T12:31:40.513Z,3.3
2023-03-26T12:32:46.264Z,3.3
2023-03-26T12:33:42.686Z,3.2
2023-03-26T12:34:43.273Z,3.8
2023-03-26T12:35:43.908Z,3.4
2023-03-26T12:36:44.470Z,3.2
2023-03-26T12:37:45.066Z,2.7
2023-03-26T12:38:45.689Z,3.0
2023-03-26T12:40:10.039Z,3.2
2023-03-26T12:40:46.942Z,3.0
2023-03-26T12:44:44.760Z,3.8
2023-03-26T12:44:53.471Z,2.9
2023-03-26T12:44:55.667Z,3.3
2023-03-26T12:44:59.389Z,2.8
2023-03-26T12:47:46.141Z,2.9
2023-03-26T12:47:59.337Z,2.5
2023-03-26T12:48:03.088Z,3.1
2023-03-26T12:48:56.859Z,2.8
2023-03-26T12:49:57.477Z,2.8
2023-03-26T12:50:58.392Z,3.1
2023-03-26T12:51:59.134Z,3.6
2023-03-26T12:52:59.729Z,3.1
2023-03-26T12:54:00.327Z,3.1
2023-03-26T12:55:00.947Z,3.4
2023-03-26T12:56:01.567Z,3.7
2023-03-26T12:57:12.337Z,3.0
2023-03-26T12:58:13.837Z,4.2
2023-03-26T12:59:05.659Z,3.4
2023-03-26T13:00:06.169Z,3.0
2023-03-26T13:01:06.819Z,3.3
2023-03-26T13:02:07.403Z,3.0
2023-03-26T13:03:08.078Z,2.8
2023-03-26T13:04:08.600Z,3.4
2023-03-26T13:05:09.205Z,3.5
2023-03-26T13:06:09.798Z,3.4
2023-03-26T13:07:10.398Z,3.9
2023-03-26T13:08:10.997Z,3.3
2023-03-26T13:09:11.604Z,3.4
2023-03-26T13:10:12.230Z,2.9
2023-03-26T13:11:12.813Z,3.1
2023-03-26T13:12:13.416Z,3.3
2023-03-26T13:13:14.017Z,3.6
2023-03-26T13:14:14.613Z,2.9
2023-03-26T13:15:15.216Z,3.1
2023-03-26T13:16:15.807Z,2.6
2023-03-26T13:17:16.426Z,3.3
2023-03-26T13:18:17.034Z,3.5
2023-03-26T13:19:17.636Z,2.9
2023-03-26T13:20:18.226Z,2.9
2023-03-26T13:21:18.828Z,3.6
2023-03-26T13:22:19.455Z,2.9
2023-03-26T13:23:20.049Z,3.1
2023-03-26T13:24:20.651Z,3.6
2023-03-26T13:25:21.265Z,3.0
2023-03-26T13:26:21.863Z,3.4
2023-03-26T13:27:22.464Z,2.8
2023-03-26T13:28:23.063Z,3.8
2023-03-26T13:29:23.666Z,2.9
2023-03-26T13:30:24.277Z,3.0
2023-03-26T13:31:24.882Z,3.0
2023-03-26T13:32:25.477Z,3.1
2023-03-26T13:33:26.061Z,3.4
2023-03-26T13:34:26.661Z,3.0
2023-03-26T13:35:27.354Z,3.3
2023-03-26T13:36:27.969Z,3.5
2023-03-26T13:37:28.580Z,3.8
2023-03-26T13:38:29.186Z,3.5
2023-03-26T13:39:29.782Z,3.3
2023-03-26T13:40:30.397Z,3.2
2023-03-26T13:41:30.983Z,3.5
2023-03-26T13:42:31.582Z,3.9
2023-03-26T13:43:32.182Z,4.1
2023-03-26T13:44:32.782Z,3.8
2023-03-26T13:45:33.384Z,3.8
2023-03-26T13:46:34.045Z,4.2
2023-03-26T13:47:34.630Z,3.9
2023-03-26T13:48:35.212Z,4.2
2023-03-26T13:49:35.809Z,4.0
2023-03-26T13:50:36.428Z,4.0
2023-03-26T13:51:37.028Z,3.9